Hlavní strana
METAR-TAF:

METAR-TAF

Letiště :

Letiště Louisville

Louisville, Kentucky, Spojené státy americké

zeměpisná šířka: 38-10-38N, zeměpisná délka: 085-43-47W, výška: 151 m

Aktuální stav počasí

Zpráva byla vytvořena před 12 minutami, v 10:56 UTC
Severní vítr 6 kt
Teplota 2°C
Vlhkost vzduchu 80%
Tlak 1026 hPa
Viditelnost: 12.9 km
Skoro jasno ve výšce 15000 ft
Skoro jasno ve výšce 25000 ft

METAR: KSDF 251056Z 36006KT 8SM FEW150 FEW250 02/M01 A3029 RMK AO2 SLP258 T00171011 $

Čas: 06:08 (11:08 UTC)

Předpověď počasí

Zpráva byla vytvořena před 5 hodinami a 45 minutami, v 05:23 UTC
Předpověď platná od 25 v 06 UTC do 26 v 12 UTC
Severní vítr 8 kt
Viditelnost: 10 km
Skoro jasno ve výšce 20000 ft
Od 25 v 1300 UTC
Severní vítr 7 kt
Viditelnost: 10 km
Polojasno ve výšce 20000 ft

TAF: KSDF 250523Z 2506/2612 35008KT P6SM FEW200 FM251300 01007KT P6SM SCT200

Stav a předpovědi počasí z více než 4 000 letišť (zprávy METAR a TAF).

Červené a žluté tečky na mapě představují dostupné meteorologické stanice.

Když kurzor umístíte na tečku, zobrazí se název stanice.

Pak kliknutím zobrazíte stav a předpověď počasí.

Chcete-li změnit mapu, kliknutím na zelené tlačítko se znaménkem +mapu přiblížíte, kliknutím na zelené tlačítko se znaménkem – mapu oddálíte a kliknutím na zelené šipky přejdete na sousední mapy.


METAR-TAF: